sensor_id;sensor_type;location;lat;lon;timestamp;P1;durP1;ratioP1;P2;durP2;ratioP2
787;SDS011;16074;42.708;23.312;2022-08-21T00:00:29;38.67;;;26.87;;
787;SDS011;16074;42.708;23.312;2022-08-21T00:02:59;36.07;;;26.00;;
787;SDS011;16074;42.708;23.312;2022-08-21T00:05:31;41.17;;;29.50;;
787;SDS011;16074;42.708;23.312;2022-08-21T00:08:00;39.10;;;28.90;;
787;SDS011;16074;42.708;23.312;2022-08-21T00:10:28;54.23;;;29.00;;
787;SDS011;16074;42.708;23.312;2022-08-21T00:12:57;43.73;;;29.00;;
787;SDS011;16074;42.708;23.312;2022-08-21T00:15:26;43.53;;;28.60;;
787;SDS011;16074;42.708;23.312;2022-08-21T00:17:57;37.93;;;26.90;;
787;SDS011;16074;42.708;23.312;2022-08-21T00:20:25;41.13;;;27.40;;
787;SDS011;16074;42.708;23.312;2022-08-21T00:22:55;43.97;;;25.77;;
787;SDS011;16074;42.708;23.312;2022-08-21T00:25:23;40.87;;;26.57;;
787;SDS011;16074;42.708;23.312;2022-08-21T00:27:52;45.53;;;27.33;;
787;SDS011;16074;42.708;23.312;2022-08-21T00:30:21;42.93;;;25.47;;
787;SDS011;16074;42.708;23.312;2022-08-21T00:32:52;52.20;;;28.40;;
787;SDS011;16074;42.708;23.312;2022-08-21T00:35:22;38.40;;;26.77;;
787;SDS011;16074;42.708;23.312;2022-08-21T00:37:52;44.27;;;27.57;;
787;SDS011;16074;42.708;23.312;2022-08-21T00:40:31;43.67;;;25.77;;
787;SDS011;16074;42.708;23.312;2022-08-21T00:43:03;45.70;;;28.33;;
787;SDS011;16074;42.708;23.312;2022-08-21T00:45:33;48.40;;;26.57;;
787;SDS011;16074;42.708;23.312;2022-08-21T00:48:02;39.50;;;27.00;;
787;SDS011;16074;42.708;23.312;2022-08-21T00:50:32;42.73;;;26.20;;
787;SDS011;16074;42.708;23.312;2022-08-21T00:53:03;46.20;;;26.40;;
787;SDS011;16074;42.708;23.312;2022-08-21T00:55:34;45.23;;;27.00;;
787;SDS011;16074;42.708;23.312;2022-08-21T00:58:05;45.23;;;27.17;;
787;SDS011;16074;42.708;23.312;2022-08-21T01:00:37;32.37;;;22.50;;
787;SDS011;16074;42.708;23.312;2022-08-21T01:03:09;33.97;;;23.30;;
787;SDS011;16074;42.708;23.312;2022-08-21T01:05:41;38.07;;;23.50;;
787;SDS011;16074;42.708;23.312;2022-08-21T01:08:10;31.73;;;21.97;;
787;SDS011;16074;42.708;23.312;2022-08-21T01:10:40;41.70;;;25.57;;
787;SDS011;16074;42.708;23.312;2022-08-21T01:13:11;38.00;;;25.93;;
787;SDS011;16074;42.708;23.312;2022-08-21T01:15:42;37.00;;;25.73;;
787;SDS011;16074;42.708;23.312;2022-08-21T01:18:13;37.87;;;24.30;;
787;SDS011;16074;42.708;23.312;2022-08-21T01:20:42;37.47;;;25.57;;
787;SDS011;16074;42.708;23.312;2022-08-21T01:23:17;38.63;;;25.20;;
787;SDS011;16074;42.708;23.312;2022-08-21T01:25:45;36.40;;;25.97;;
787;SDS011;16074;42.708;23.312;2022-08-21T01:28:14;36.03;;;24.10;;
787;SDS011;16074;42.708;23.312;2022-08-21T01:30:42;38.43;;;24.50;;
787;SDS011;16074;42.708;23.312;2022-08-21T01:33:11;35.23;;;22.40;;
787;SDS011;16074;42.708;23.312;2022-08-21T01:35:39;34.47;;;21.20;;
787;SDS011;16074;42.708;23.312;2022-08-21T01:38:07;38.23;;;26.00;;
787;SDS011;16074;42.708;23.312;2022-08-21T01:40:37;48.73;;;26.50;;
787;SDS011;16074;42.708;23.312;2022-08-21T01:43:05;37.70;;;24.10;;
787;SDS011;16074;42.708;23.312;2022-08-21T01:45:33;38.97;;;25.50;;
787;SDS011;16074;42.708;23.312;2022-08-21T01:48:02;40.77;;;25.20;;
787;SDS011;16074;42.708;23.312;2022-08-21T01:50:30;37.10;;;25.20;;
787;SDS011;16074;42.708;23.312;2022-08-21T01:52:59;40.90;;;25.20;;
787;SDS011;16074;42.708;23.312;2022-08-21T01:55:27;33.00;;;23.93;;
787;SDS011;16074;42.708;23.312;2022-08-21T01:57:56;36.33;;;22.30;;
787;SDS011;16074;42.708;23.312;2022-08-21T02:00:26;38.00;;;23.47;;
787;SDS011;16074;42.708;23.312;2022-08-21T02:02:54;31.90;;;20.83;;
787;SDS011;16074;42.708;23.312;2022-08-21T02:05:23;31.80;;;19.90;;
787;SDS011;16074;42.708;23.312;2022-08-21T02:07:52;26.80;;;18.73;;
787;SDS011;16074;42.708;23.312;2022-08-21T02:10:23;30.80;;;18.77;;
787;SDS011;16074;42.708;23.312;2022-08-21T02:12:53;21.00;;;15.47;;
787;SDS011;16074;42.708;23.312;2022-08-21T02:15:23;20.17;;;13.77;;
787;SDS011;16074;42.708;23.312;2022-08-21T02:17:52;16.50;;;12.97;;
787;SDS011;16074;42.708;23.312;2022-08-21T02:20:22;16.90;;;12.53;;
787;SDS011;16074;42.708;23.312;2022-08-21T02:22:54;14.67;;;11.97;;
787;SDS011;16074;42.708;23.312;2022-08-21T02:25:24;17.23;;;13.77;;
787;SDS011;16074;42.708;23.312;2022-08-21T02:27:53;17.40;;;13.63;;
787;SDS011;16074;42.708;23.312;2022-08-21T02:30:25;15.60;;;12.13;;
787;SDS011;16074;42.708;23.312;2022-08-21T02:32:56;14.40;;;12.17;;
787;SDS011;16074;42.708;23.312;2022-08-21T02:35:26;16.50;;;12.70;;
787;SDS011;16074;42.708;23.312;2022-08-21T02:37:55;12.23;;;11.00;;
787;SDS011;16074;42.708;23.312;2022-08-21T02:40:27;15.43;;;12.17;;
787;SDS011;16074;42.708;23.312;2022-08-21T02:42:57;18.57;;;11.57;;
787;SDS011;16074;42.708;23.312;2022-08-21T02:45:28;14.27;;;12.33;;
787;SDS011;16074;42.708;23.312;2022-08-21T02:47:57;14.27;;;12.97;;
787;SDS011;16074;42.708;23.312;2022-08-21T02:50:31;14.90;;;11.73;;
787;SDS011;16074;42.708;23.312;2022-08-21T02:53:00;14.40;;;12.13;;
787;SDS011;16074;42.708;23.312;2022-08-21T02:55:29;14.60;;;11.30;;
787;SDS011;16074;42.708;23.312;2022-08-21T02:57:59;15.17;;;11.57;;
787;SDS011;16074;42.708;23.312;2022-08-21T03:00:29;23.20;;;12.37;;
787;SDS011;16074;42.708;23.312;2022-08-21T03:02:58;13.97;;;12.57;;
787;SDS011;16074;42.708;23.312;2022-08-21T03:05:27;16.47;;;12.37;;
787;SDS011;16074;42.708;23.312;2022-08-21T03:07:57;16.60;;;13.33;;
787;SDS011;16074;42.708;23.312;2022-08-21T03:10:27;15.50;;;11.87;;
787;SDS011;16074;42.708;23.312;2022-08-21T03:12:55;14.17;;;12.57;;
787;SDS011;16074;42.708;23.312;2022-08-21T03:15:24;17.07;;;12.83;;
787;SDS011;16074;42.708;23.312;2022-08-21T03:17:53;21.07;;;15.53;;
787;SDS011;16074;42.708;23.312;2022-08-21T03:20:23;25.37;;;16.27;;
787;SDS011;16074;42.708;23.312;2022-08-21T03:22:52;19.30;;;14.80;;
787;SDS011;16074;42.708;23.312;2022-08-21T03:25:22;21.90;;;17.50;;
787;SDS011;16074;42.708;23.312;2022-08-21T03:28:07;21.90;;;16.77;;
787;SDS011;16074;42.708;23.312;2022-08-21T03:30:39;20.57;;;16.67;;
787;SDS011;16074;42.708;23.312;2022-08-21T03:33:09;26.70;;;17.30;;
787;SDS011;16074;42.708;23.312;2022-08-21T03:35:41;21.67;;;16.93;;
787;SDS011;16074;42.708;23.312;2022-08-21T03:38:10;21.47;;;17.80;;
787;SDS011;16074;42.708;23.312;2022-08-21T03:40:40;18.90;;;16.87;;
787;SDS011;16074;42.708;23.312;2022-08-21T03:43:08;24.60;;;20.63;;
787;SDS011;16074;42.708;23.312;2022-08-21T03:45:37;26.97;;;20.00;;
787;SDS011;16074;42.708;23.312;2022-08-21T03:48:07;27.33;;;18.47;;
787;SDS011;16074;42.708;23.312;2022-08-21T03:50:39;30.93;;;18.43;;
787;SDS011;16074;42.708;23.312;2022-08-21T03:53:09;28.97;;;20.10;;
787;SDS011;16074;42.708;23.312;2022-08-21T03:55:43;25.50;;;19.90;;
787;SDS011;16074;42.708;23.312;2022-08-21T03:58:13;23.57;;;19.87;;
787;SDS011;16074;42.708;23.312;2022-08-21T04:00:43;22.73;;;18.63;;
787;SDS011;16074;42.708;23.312;2022-08-21T04:03:13;21.33;;;18.10;;
787;SDS011;16074;42.708;23.312;2022-08-21T04:05:42;22.67;;;17.27;;
787;SDS011;16074;42.708;23.312;2022-08-21T04:08:12;24.10;;;18.57;;
787;SDS011;16074;42.708;23.312;2022-08-21T04:10:41;23.27;;;20.40;;
787;SDS011;16074;42.708;23.312;2022-08-21T04:13:11;35.03;;;25.97;;
787;SDS011;16074;42.708;23.312;2022-08-21T04:15:41;30.90;;;22.70;;
787;SDS011;16074;42.708;23.312;2022-08-21T04:18:09;27.67;;;21.97;;
787;SDS011;16074;42.708;23.312;2022-08-21T04:20:39;28.60;;;23.40;;
787;SDS011;16074;42.708;23.312;2022-08-21T04:23:16;25.00;;;21.23;;
787;SDS011;16074;42.708;23.312;2022-08-21T04:25:50;31.83;;;22.90;;
787;SDS011;16074;42.708;23.312;2022-08-21T04:28:18;26.40;;;23.20;;
787;SDS011;16074;42.708;23.312;2022-08-21T04:30:49;29.77;;;21.53;;
787;SDS011;16074;42.708;23.312;2022-08-21T04:33:18;25.50;;;22.60;;
787;SDS011;16074;42.708;23.312;2022-08-21T04:35:48;28.00;;;20.83;;
787;SDS011;16074;42.708;23.312;2022-08-21T04:38:17;30.27;;;21.37;;
787;SDS011;16074;42.708;23.312;2022-08-21T04:40:47;27.10;;;21.70;;
787;SDS011;16074;42.708;23.312;2022-08-21T04:43:15;25.83;;;21.73;;
787;SDS011;16074;42.708;23.312;2022-08-21T04:45:45;20.93;;;18.70;;
787;SDS011;16074;42.708;23.312;2022-08-21T04:48:15;24.60;;;19.30;;
787;SDS011;16074;42.708;23.312;2022-08-21T04:50:47;19.50;;;17.40;;
787;SDS011;16074;42.708;23.312;2022-08-21T04:53:20;21.37;;;15.77;;
787;SDS011;16074;42.708;23.312;2022-08-21T04:55:52;18.30;;;14.30;;
787;SDS011;16074;42.708;23.312;2022-08-21T04:58:24;16.77;;;14.90;;
787;SDS011;16074;42.708;23.312;2022-08-21T05:00:54;17.43;;;15.37;;
787;SDS011;16074;42.708;23.312;2022-08-21T05:03:25;16.90;;;14.77;;
787;SDS011;16074;42.708;23.312;2022-08-21T05:05:55;18.20;;;15.10;;
787;SDS011;16074;42.708;23.312;2022-08-21T05:08:24;20.87;;;13.20;;
787;SDS011;16074;42.708;23.312;2022-08-21T05:10:54;15.47;;;13.97;;
787;SDS011;16074;42.708;23.312;2022-08-21T05:13:26;17.70;;;13.63;;
787;SDS011;16074;42.708;23.312;2022-08-21T05:15:54;15.20;;;13.63;;
787;SDS011;16074;42.708;23.312;2022-08-21T05:18:23;17.83;;;14.73;;
787;SDS011;16074;42.708;23.312;2022-08-21T05:20:51;15.83;;;13.67;;
787;SDS011;16074;42.708;23.312;2022-08-21T05:23:21;18.90;;;14.20;;
787;SDS011;16074;42.708;23.312;2022-08-21T05:25:49;16.33;;;14.60;;
787;SDS011;16074;42.708;23.312;2022-08-21T05:28:17;19.97;;;13.40;;
787;SDS011;16074;42.708;23.312;2022-08-21T05:30:45;15.40;;;13.90;;
787;SDS011;16074;42.708;23.312;2022-08-21T05:33:13;19.67;;;17.57;;
787;SDS011;16074;42.708;23.312;2022-08-21T05:35:42;25.10;;;16.80;;
787;SDS011;16074;42.708;23.312;2022-08-21T05:38:10;19.17;;;17.30;;
787;SDS011;16074;42.708;23.312;2022-08-21T05:40:45;22.37;;;16.80;;
787;SDS011;16074;42.708;23.312;2022-08-21T05:43:13;18.17;;;16.27;;
787;SDS011;16074;42.708;23.312;2022-08-21T05:45:42;18.87;;;16.97;;
787;SDS011;16074;42.708;23.312;2022-08-21T05:48:11;17.80;;;16.07;;
787;SDS011;16074;42.708;23.312;2022-08-21T05:50:42;23.33;;;17.33;;
787;SDS011;16074;42.708;23.312;2022-08-21T05:53:11;17.43;;;15.40;;
787;SDS011;16074;42.708;23.312;2022-08-21T05:55:40;19.60;;;15.73;;
787;SDS011;16074;42.708;23.312;2022-08-21T05:58:14;21.50;;;14.93;;
787;SDS011;16074;42.708;23.312;2022-08-21T06:00:43;15.80;;;14.30;;
787;SDS011;16074;42.708;23.312;2022-08-21T06:03:15;16.17;;;14.47;;
787;SDS011;16074;42.708;23.312;2022-08-21T06:05:44;17.97;;;13.90;;
787;SDS011;16074;42.708;23.312;2022-08-21T06:08:13;17.67;;;12.63;;
787;SDS011;16074;42.708;23.312;2022-08-21T06:10:41;17.17;;;15.63;;
787;SDS011;16074;42.708;23.312;2022-08-21T06:13:10;18.87;;;15.23;;
787;SDS011;16074;42.708;23.312;2022-08-21T06:15:40;18.70;;;15.93;;
787;SDS011;16074;42.708;23.312;2022-08-21T06:18:08;22.43;;;15.73;;
787;SDS011;16074;42.708;23.312;2022-08-21T06:20:36;17.87;;;15.97;;
787;SDS011;16074;42.708;23.312;2022-08-21T06:23:05;16.43;;;14.57;;
787;SDS011;16074;42.708;23.312;2022-08-21T06:25:33;20.00;;;17.90;;
787;SDS011;16074;42.708;23.312;2022-08-21T06:28:02;21.20;;;16.97;;
787;SDS011;16074;42.708;23.312;2022-08-21T06:30:32;19.07;;;17.03;;
787;SDS011;16074;42.708;23.312;2022-08-21T06:33:02;19.53;;;17.37;;
787;SDS011;16074;42.708;23.312;2022-08-21T06:35:30;18.47;;;16.50;;
787;SDS011;16074;42.708;23.312;2022-08-21T06:37:59;17.90;;;16.03;;
787;SDS011;16074;42.708;23.312;2022-08-21T06:40:27;19.87;;;17.83;;
787;SDS011;16074;42.708;23.312;2022-08-21T06:43:05;22.83;;;20.47;;
787;SDS011;16074;42.708;23.312;2022-08-21T06:45:35;23.27;;;18.33;;
787;SDS011;16074;42.708;23.312;2022-08-21T06:48:05;21.40;;;16.83;;
787;SDS011;16074;42.708;23.312;2022-08-21T06:50:34;22.07;;;18.40;;
787;SDS011;16074;42.708;23.312;2022-08-21T06:53:04;20.53;;;18.13;;
787;SDS011;16074;42.708;23.312;2022-08-21T06:55:35;24.23;;;19.13;;
787;SDS011;16074;42.708;23.312;2022-08-21T06:58:04;20.33;;;18.30;;
787;SDS011;16074;42.708;23.312;2022-08-21T07:00:33;20.67;;;18.47;;
787;SDS011;16074;42.708;23.312;2022-08-21T07:03:02;20.53;;;18.60;;
787;SDS011;16074;42.708;23.312;2022-08-21T07:05:32;19.93;;;17.87;;
787;SDS011;16074;42.708;23.312;2022-08-21T07:08:00;26.53;;;20.13;;
787;SDS011;16074;42.708;23.312;2022-08-21T07:10:29;24.30;;;19.67;;
787;SDS011;16074;42.708;23.312;2022-08-21T07:12:57;20.47;;;18.07;;
787;SDS011;16074;42.708;23.312;2022-08-21T07:15:27;19.93;;;17.83;;
787;SDS011;16074;42.708;23.312;2022-08-21T07:17:56;18.40;;;16.60;;
787;SDS011;16074;42.708;23.312;2022-08-21T07:20:26;18.23;;;16.33;;
787;SDS011;16074;42.708;23.312;2022-08-21T07:22:55;19.20;;;17.43;;
787;SDS011;16074;42.708;23.312;2022-08-21T07:25:26;17.83;;;16.20;;
787;SDS011;16074;42.708;23.312;2022-08-21T07:27:55;19.60;;;17.80;;
787;SDS011;16074;42.708;23.312;2022-08-21T07:30:23;18.23;;;16.47;;
787;SDS011;16074;42.708;23.312;2022-08-21T07:32:51;18.70;;;16.90;;
787;SDS011;16074;42.708;23.312;2022-08-21T07:35:20;17.03;;;15.03;;
787;SDS011;16074;42.708;23.312;2022-08-21T07:37:49;18.20;;;15.00;;
787;SDS011;16074;42.708;23.312;2022-08-21T07:40:19;15.67;;;13.47;;
787;SDS011;16074;42.708;23.312;2022-08-21T07:42:47;14.63;;;13.13;;
787;SDS011;16074;42.708;23.312;2022-08-21T07:45:19;15.73;;;12.60;;
787;SDS011;16074;42.708;23.312;2022-08-21T07:47:49;13.70;;;12.33;;
787;SDS011;16074;42.708;23.312;2022-08-21T07:50:23;15.90;;;13.33;;
787;SDS011;16074;42.708;23.312;2022-08-21T07:52:51;12.47;;;11.30;;
787;SDS011;16074;42.708;23.312;2022-08-21T07:55:21;12.93;;;11.73;;
787;SDS011;16074;42.708;23.312;2022-08-21T07:57:50;13.63;;;12.07;;
787;SDS011;16074;42.708;23.312;2022-08-21T08:00:19;14.40;;;13.20;;
787;SDS011;16074;42.708;23.312;2022-08-21T08:02:51;14.57;;;13.20;;
787;SDS011;16074;42.708;23.312;2022-08-21T08:05:22;14.13;;;12.90;;
787;SDS011;16074;42.708;23.312;2022-08-21T08:07:52;15.30;;;13.93;;
787;SDS011;16074;42.708;23.312;2022-08-21T08:10:23;18.50;;;14.53;;
787;SDS011;16074;42.708;23.312;2022-08-21T08:12:51;15.97;;;14.13;;
787;SDS011;16074;42.708;23.312;2022-08-21T08:15:22;14.10;;;12.83;;
787;SDS011;16074;42.708;23.312;2022-08-21T08:17:51;16.77;;;15.37;;
787;SDS011;16074;42.708;23.312;2022-08-21T08:32:41;16.40;;;14.90;;
787;SDS011;16074;42.708;23.312;2022-08-21T08:35:10;16.83;;;15.07;;
787;SDS011;16074;42.708;23.312;2022-08-21T08:37:39;15.90;;;14.43;;
787;SDS011;16074;42.708;23.312;2022-08-21T08:40:12;16.30;;;14.40;;
787;SDS011;16074;42.708;23.312;2022-08-21T08:42:46;16.67;;;15.00;;
787;SDS011;16074;42.708;23.312;2022-08-21T08:45:18;15.17;;;13.80;;
787;SDS011;16074;42.708;23.312;2022-08-21T08:47:52;15.77;;;14.47;;
787;SDS011;16074;42.708;23.312;2022-08-21T08:50:26;14.23;;;13.07;;
787;SDS011;16074;42.708;23.312;2022-08-21T08:53:01;15.73;;;14.20;;
787;SDS011;16074;42.708;23.312;2022-08-21T08:55:33;16.23;;;14.00;;
787;SDS011;16074;42.708;23.312;2022-08-21T08:58:03;16.33;;;14.63;;
787;SDS011;16074;42.708;23.312;2022-08-21T09:00:32;15.83;;;14.23;;
787;SDS011;16074;42.708;23.312;2022-08-21T09:03:02;16.27;;;14.80;;
787;SDS011;16074;42.708;23.312;2022-08-21T09:05:35;15.67;;;13.20;;
787;SDS011;16074;42.708;23.312;2022-08-21T09:08:32;13.83;;;12.57;;
787;SDS011;16074;42.708;23.312;2022-08-21T09:11:19;13.80;;;11.63;;
787;SDS011;16074;42.708;23.312;2022-08-21T09:13:54;12.20;;;11.07;;
787;SDS011;16074;42.708;23.312;2022-08-21T09:16:32;12.97;;;11.70;;
787;SDS011;16074;42.708;23.312;2022-08-21T09:19:12;14.40;;;13.07;;
787;SDS011;16074;42.708;23.312;2022-08-21T09:22:06;12.53;;;11.40;;
787;SDS011;16074;42.708;23.312;2022-08-21T09:24:44;14.00;;;12.60;;
787;SDS011;16074;42.708;23.312;2022-08-21T09:27:21;13.60;;;12.20;;
787;SDS011;16074;42.708;23.312;2022-08-21T09:29:50;13.10;;;11.80;;
787;SDS011;16074;42.708;23.312;2022-08-21T09:32:21;11.93;;;10.63;;
787;SDS011;16074;42.708;23.312;2022-08-21T09:35:05;10.37;;;9.57;;
787;SDS011;16074;42.708;23.312;2022-08-21T09:37:44;12.73;;;11.03;;
787;SDS011;16074;42.708;23.312;2022-08-21T09:40:18;10.63;;;9.63;;
787;SDS011;16074;42.708;23.312;2022-08-21T09:42:58;10.60;;;9.70;;
787;SDS011;16074;42.708;23.312;2022-08-21T09:45:28;11.43;;;10.30;;
787;SDS011;16074;42.708;23.312;2022-08-21T09:48:09;10.33;;;9.33;;
787;SDS011;16074;42.708;23.312;2022-08-21T09:50:40;10.00;;;9.00;;
787;SDS011;16074;42.708;23.312;2022-08-21T09:53:15;10.60;;;9.60;;
787;SDS011;16074;42.708;23.312;2022-08-21T09:55:49;13.37;;;10.20;;
787;SDS011;16074;42.708;23.312;2022-08-21T09:58:38;8.97;;;8.07;;
787;SDS011;16074;42.708;23.312;2022-08-21T10:01:12;10.43;;;9.43;;
787;SDS011;16074;42.708;23.312;2022-08-21T10:03:42;10.73;;;9.63;;
787;SDS011;16074;42.708;23.312;2022-08-21T10:06:21;10.30;;;9.30;;
787;SDS011;16074;42.708;23.312;2022-08-21T10:09:02;10.33;;;9.27;;
787;SDS011;16074;42.708;23.312;2022-08-21T10:11:33;14.33;;;8.90;;
787;SDS011;16074;42.708;23.312;2022-08-21T10:14:07;10.17;;;9.20;;
787;SDS011;16074;42.708;23.312;2022-08-21T10:16:48;11.70;;;9.63;;
787;SDS011;16074;42.708;23.312;2022-08-21T10:19:29;10.30;;;9.30;;
787;SDS011;16074;42.708;23.312;2022-08-21T10:22:07;10.37;;;9.37;;
787;SDS011;16074;42.708;23.312;2022-08-21T10:24:47;14.43;;;10.63;;
787;SDS011;16074;42.708;23.312;2022-08-21T10:27:27;11.33;;;10.33;;
787;SDS011;16074;42.708;23.312;2022-08-21T10:30:07;11.80;;;9.20;;
787;SDS011;16074;42.708;23.312;2022-08-21T10:32:45;10.27;;;9.27;;
787;SDS011;16074;42.708;23.312;2022-08-21T10:35:24;10.20;;;9.30;;
787;SDS011;16074;42.708;23.312;2022-08-21T10:38:02;10.40;;;8.80;;
787;SDS011;16074;42.708;23.312;2022-08-21T10:41:06;10.10;;;8.80;;
787;SDS011;16074;42.708;23.312;2022-08-21T10:43:43;9.93;;;9.10;;
787;SDS011;16074;42.708;23.312;2022-08-21T10:46:33;10.27;;;9.27;;
787;SDS011;16074;42.708;23.312;2022-08-21T10:49:14;11.67;;;8.73;;
787;SDS011;16074;42.708;23.312;2022-08-21T10:51:52;10.23;;;9.23;;
787;SDS011;16074;42.708;23.312;2022-08-21T10:54:34;8.20;;;7.40;;
787;SDS011;16074;42.708;23.312;2022-08-21T10:57:11;9.03;;;8.20;;
787;SDS011;16074;42.708;23.312;2022-08-21T11:00:00;10.63;;;8.00;;
787;SDS011;16074;42.708;23.312;2022-08-21T11:02:32;8.83;;;8.20;;
787;SDS011;16074;42.708;23.312;2022-08-21T11:05:05;12.23;;;8.33;;
787;SDS011;16074;42.708;23.312;2022-08-21T11:07:39;12.30;;;9.20;;
787;SDS011;16074;42.708;23.312;2022-08-21T11:10:18;8.67;;;7.60;;
787;SDS011;16074;42.708;23.312;2022-08-21T11:12:52;8.87;;;8.00;;
787;SDS011;16074;42.708;23.312;2022-08-21T11:15:26;14.40;;;8.80;;
787;SDS011;16074;42.708;23.312;2022-08-21T11:18:02;9.70;;;8.53;;
787;SDS011;16074;42.708;23.312;2022-08-21T11:20:43;8.13;;;7.53;;
787;SDS011;16074;42.708;23.312;2022-08-21T11:23:18;9.90;;;8.63;;
787;SDS011;16074;42.708;23.312;2022-08-21T11:25:55;9.20;;;8.60;;
787;SDS011;16074;42.708;23.312;2022-08-21T11:28:29;9.17;;;8.30;;
787;SDS011;16074;42.708;23.312;2022-08-21T11:31:02;10.60;;;8.60;;
787;SDS011;16074;42.708;23.312;2022-08-21T11:33:47;11.17;;;9.20;;
787;SDS011;16074;42.708;23.312;2022-08-21T11:36:24;8.70;;;8.20;;
787;SDS011;16074;42.708;23.312;2022-08-21T11:39:02;9.13;;;8.30;;
787;SDS011;16074;42.708;23.312;2022-08-21T11:41:42;10.33;;;8.27;;
787;SDS011;16074;42.708;23.312;2022-08-21T11:44:17;8.17;;;7.57;;
787;SDS011;16074;42.708;23.312;2022-08-21T11:46:53;7.93;;;7.20;;
787;SDS011;16074;42.708;23.312;2022-08-21T11:49:42;7.70;;;7.00;;
787;SDS011;16074;42.708;23.312;2022-08-21T11:52:18;8.20;;;7.40;;
787;SDS011;16074;42.708;23.312;2022-08-21T11:54:52;7.57;;;6.97;;
787;SDS011;16074;42.708;23.312;2022-08-21T11:57:28;6.90;;;6.27;;
787;SDS011;16074;42.708;23.312;2022-08-21T12:00:02;7.93;;;7.20;;
787;SDS011;16074;42.708;23.312;2022-08-21T12:02:41;7.90;;;7.23;;
787;SDS011;16074;42.708;23.312;2022-08-21T12:05:22;8.10;;;7.50;;
787;SDS011;16074;42.708;23.312;2022-08-21T12:08:05;7.77;;;7.00;;
787;SDS011;16074;42.708;23.312;2022-08-21T12:10:39;8.60;;;7.80;;
787;SDS011;16074;42.708;23.312;2022-08-21T12:13:11;7.43;;;6.40;;
787;SDS011;16074;42.708;23.312;2022-08-21T12:16:08;8.13;;;7.40;;
787;SDS011;16074;42.708;23.312;2022-08-21T12:18:39;10.60;;;7.40;;
787;SDS011;16074;42.708;23.312;2022-08-21T12:21:19;7.40;;;6.70;;
787;SDS011;16074;42.708;23.312;2022-08-21T12:23:59;8.53;;;7.83;;
787;SDS011;16074;42.708;23.312;2022-08-21T12:26:30;8.07;;;7.30;;
787;SDS011;16074;42.708;23.312;2022-08-21T12:29:10;8.80;;;8.00;;
787;SDS011;16074;42.708;23.312;2022-08-21T12:31:52;9.07;;;8.17;;
787;SDS011;16074;42.708;23.312;2022-08-21T12:34:23;8.27;;;7.67;;
787;SDS011;16074;42.708;23.312;2022-08-21T12:36:54;9.20;;;8.30;;
787;SDS011;16074;42.708;23.312;2022-08-21T12:39:29;8.33;;;7.63;;
787;SDS011;16074;42.708;23.312;2022-08-21T12:42:05;8.77;;;8.10;;
787;SDS011;16074;42.708;23.312;2022-08-21T12:44:42;8.10;;;7.50;;
787;SDS011;16074;42.708;23.312;2022-08-21T12:47:16;9.50;;;8.40;;
787;SDS011;16074;42.708;23.312;2022-08-21T12:49:54;10.67;;;8.03;;
787;SDS011;16074;42.708;23.312;2022-08-21T12:52:29;8.53;;;7.87;;
787;SDS011;16074;42.708;23.312;2022-08-21T12:55:05;9.50;;;8.57;;
787;SDS011;16074;42.708;23.312;2022-08-21T12:57:35;9.00;;;8.10;;
787;SDS011;16074;42.708;23.312;2022-08-21T13:00:09;10.10;;;9.10;;
787;SDS011;16074;42.708;23.312;2022-08-21T13:02:42;8.97;;;8.33;;
787;SDS011;16074;42.708;23.312;2022-08-21T13:05:14;10.07;;;9.07;;
787;SDS011;16074;42.708;23.312;2022-08-21T13:07:47;9.17;;;8.37;;
787;SDS011;16074;42.708;23.312;2022-08-21T13:10:18;9.37;;;8.47;;
787;SDS011;16074;42.708;23.312;2022-08-21T13:12:50;9.37;;;8.60;;
787;SDS011;16074;42.708;23.312;2022-08-21T13:15:24;10.07;;;9.10;;
787;SDS011;16074;42.708;23.312;2022-08-21T13:17:59;8.90;;;8.10;;
787;SDS011;16074;42.708;23.312;2022-08-21T13:20:30;10.70;;;8.70;;
787;SDS011;16074;42.708;23.312;2022-08-21T13:23:01;9.10;;;8.20;;
787;SDS011;16074;42.708;23.312;2022-08-21T13:25:33;9.07;;;8.20;;
787;SDS011;16074;42.708;23.312;2022-08-21T13:28:04;11.90;;;8.23;;
787;SDS011;16074;42.708;23.312;2022-08-21T13:30:39;8.43;;;7.63;;
787;SDS011;16074;42.708;23.312;2022-08-21T13:33:11;8.57;;;7.87;;
787;SDS011;16074;42.708;23.312;2022-08-21T13:35:48;7.80;;;6.97;;
787;SDS011;16074;42.708;23.312;2022-08-21T13:38:19;6.80;;;6.20;;
787;SDS011;16074;42.708;23.312;2022-08-21T13:40:54;8.80;;;6.80;;
787;SDS011;16074;42.708;23.312;2022-08-21T13:43:26;8.40;;;7.67;;
787;SDS011;16074;42.708;23.312;2022-08-21T13:45:57;8.90;;;7.60;;
787;SDS011;16074;42.708;23.312;2022-08-21T13:48:27;8.33;;;7.03;;
787;SDS011;16074;42.708;23.312;2022-08-21T13:50:57;8.97;;;7.07;;
787;SDS011;16074;42.708;23.312;2022-08-21T13:53:29;8.57;;;7.57;;
787;SDS011;16074;42.708;23.312;2022-08-21T13:56:00;10.23;;;8.07;;
787;SDS011;16074;42.708;23.312;2022-08-21T13:58:31;7.67;;;7.07;;
787;SDS011;16074;42.708;23.312;2022-08-21T14:01:01;9.27;;;8.37;;
787;SDS011;16074;42.708;23.312;2022-08-21T14:03:33;7.70;;;7.00;;
787;SDS011;16074;42.708;23.312;2022-08-21T14:06:10;8.07;;;6.63;;
787;SDS011;16074;42.708;23.312;2022-08-21T14:08:40;7.93;;;6.90;;
787;SDS011;16074;42.708;23.312;2022-08-21T14:11:15;6.97;;;6.47;;
787;SDS011;16074;42.708;23.312;2022-08-21T14:13:44;7.30;;;6.70;;
787;SDS011;16074;42.708;23.312;2022-08-21T14:16:18;8.03;;;7.07;;
787;SDS011;16074;42.708;23.312;2022-08-21T14:18:50;15.70;;;8.67;;
787;SDS011;16074;42.708;23.312;2022-08-21T14:24:10;8.87;;;6.50;;
787;SDS011;16074;42.708;23.312;2022-08-21T14:26:46;9.90;;;7.17;;
787;SDS011;16074;42.708;23.312;2022-08-21T14:29:19;21.17;;;19.33;;
787;SDS011;16074;42.708;23.312;2022-08-21T14:31:52;17.27;;;15.50;;
787;SDS011;16074;42.708;23.312;2022-08-21T14:34:22;14.83;;;13.50;;
787;SDS011;16074;42.708;23.312;2022-08-21T14:36:56;18.50;;;16.73;;
787;SDS011;16074;42.708;23.312;2022-08-21T14:39:24;14.93;;;13.57;;
787;SDS011;16074;42.708;23.312;2022-08-21T14:41:52;8.53;;;7.80;;
787;SDS011;16074;42.708;23.312;2022-08-21T14:44:21;9.27;;;8.00;;
787;SDS011;16074;42.708;23.312;2022-08-21T14:46:49;9.10;;;8.40;;
787;SDS011;16074;42.708;23.312;2022-08-21T14:49:24;9.43;;;8.40;;
787;SDS011;16074;42.708;23.312;2022-08-21T14:51:54;10.27;;;9.37;;
787;SDS011;16074;42.708;23.312;2022-08-21T14:54:25;8.70;;;7.90;;
787;SDS011;16074;42.708;23.312;2022-08-21T14:56:58;9.00;;;8.20;;
787;SDS011;16074;42.708;23.312;2022-08-21T14:59:29;11.17;;;9.70;;
787;SDS011;16074;42.708;23.312;2022-08-21T15:01:59;9.83;;;8.93;;
787;SDS011;16074;42.708;23.312;2022-08-21T15:04:31;9.57;;;8.77;;
787;SDS011;16074;42.708;23.312;2022-08-21T15:07:00;11.03;;;9.90;;
787;SDS011;16074;42.708;23.312;2022-08-21T15:09:28;10.57;;;9.47;;
787;SDS011;16074;42.708;23.312;2022-08-21T15:11:57;10.43;;;9.63;;
787;SDS011;16074;42.708;23.312;2022-08-21T15:14:28;12.40;;;9.93;;
787;SDS011;16074;42.708;23.312;2022-08-21T15:16:58;11.73;;;10.33;;
787;SDS011;16074;42.708;23.312;2022-08-21T15:19:26;10.43;;;9.30;;
787;SDS011;16074;42.708;23.312;2022-08-21T15:21:57;11.70;;;9.33;;
787;SDS011;16074;42.708;23.312;2022-08-21T15:24:26;11.57;;;9.30;;